createdAt,value
2024-04-06T00:00:10.726Z,100.00
2024-04-06T00:02:42.542Z,100.00
2024-04-06T00:05:11.062Z,100.00
2024-04-06T00:07:38.145Z,100.00
2024-04-06T00:10:06.382Z,100.00
2024-04-06T00:12:46.651Z,100.00
2024-04-06T00:15:13.786Z,100.00
2024-04-06T00:17:41.752Z,100.00
2024-04-06T00:20:09.225Z,100.00
2024-04-06T00:22:36.340Z,100.00
2024-04-06T00:25:05.175Z,100.00
2024-04-06T00:27:34.094Z,100.00
2024-04-06T00:30:04.405Z,100.00
2024-04-06T00:32:31.966Z,100.00
2024-04-06T00:34:59.973Z,100.00
2024-04-06T00:37:27.198Z,100.00
2024-04-06T00:39:54.428Z,100.00
2024-04-06T00:42:21.669Z,100.00
2024-04-06T00:44:48.843Z,100.00
2024-04-06T00:47:20.116Z,100.00
2024-04-06T00:49:47.313Z,100.00
2024-04-06T00:52:14.431Z,100.00
2024-04-06T00:54:57.229Z,100.00
2024-04-06T00:57:24.535Z,100.00
2024-04-06T00:59:52.705Z,100.00
2024-04-06T01:02:24.293Z,100.00
2024-04-06T01:04:56.191Z,100.00
2024-04-06T01:07:24.006Z,100.00
2024-04-06T01:09:52.223Z,100.00
2024-04-06T01:12:20.498Z,100.00
2024-04-06T01:14:48.071Z,100.00
2024-04-06T01:17:17.019Z,100.00
2024-04-06T01:19:48.306Z,100.00
2024-04-06T01:22:15.448Z,100.00
2024-04-06T01:24:46.928Z,100.00
2024-04-06T01:27:14.060Z,100.00
2024-04-06T01:29:41.451Z,100.00
2024-04-06T01:32:09.801Z,100.00
2024-04-06T01:34:38.746Z,100.00
2024-04-06T01:37:21.771Z,100.00
2024-04-06T01:39:51.833Z,100.00
2024-04-06T01:42:18.956Z,100.00
2024-04-06T01:44:46.447Z,100.00
2024-04-06T01:47:13.578Z,100.00
2024-04-06T01:49:41.986Z,100.00
2024-04-06T01:52:09.544Z,100.00
2024-04-06T01:54:37.836Z,100.00
2024-04-06T01:57:07.530Z,100.00
2024-04-06T01:59:36.467Z,100.00
2024-04-06T02:02:05.974Z,100.00
2024-04-06T02:04:33.227Z,100.00
2024-04-06T02:07:00.879Z,100.00
2024-04-06T02:09:28.010Z,100.00
2024-04-06T02:12:12.016Z,100.00
2024-04-06T02:14:49.159Z,100.00
2024-04-06T02:17:17.584Z,100.00
2024-04-06T02:19:44.922Z,100.00
2024-04-06T02:22:12.033Z,100.00
2024-04-06T02:24:39.536Z,100.00
2024-04-06T02:27:06.879Z,100.00
2024-04-06T02:29:34.030Z,100.00
2024-04-06T02:32:04.367Z,100.00
2024-04-06T02:34:31.818Z,100.00
2024-04-06T02:36:59.470Z,100.00
2024-04-06T02:39:27.034Z,100.00
2024-04-06T02:41:54.230Z,100.00
2024-04-06T02:44:22.082Z,100.00
2024-04-06T02:46:50.333Z,100.00
2024-04-06T02:49:23.387Z,100.00
2024-04-06T02:51:51.560Z,100.00
2024-04-06T02:54:35.112Z,100.00
2024-04-06T02:57:02.228Z,100.00
2024-04-06T02:59:29.376Z,100.00
2024-04-06T03:01:56.952Z,100.00
2024-04-06T03:04:26.586Z,100.00
2024-04-06T03:06:53.687Z,100.00
2024-04-06T03:09:20.785Z,100.00
2024-04-06T03:11:47.922Z,100.00
2024-04-06T03:14:15.076Z,100.00
2024-04-06T03:16:42.169Z,100.00
2024-04-06T03:19:09.763Z,100.00
2024-04-06T03:21:39.468Z,100.00
2024-04-06T03:24:07.869Z,100.00
2024-04-06T03:26:35.525Z,100.00
2024-04-06T03:29:02.647Z,100.00
2024-04-06T03:31:30.331Z,100.00
2024-04-06T03:33:58.175Z,100.00
2024-04-06T03:36:42.721Z,100.00
2024-04-06T03:39:09.914Z,100.00
2024-04-06T03:41:37.059Z,100.00
2024-04-06T03:44:04.608Z,100.00
2024-04-06T03:46:32.085Z,100.00
2024-04-06T03:48:59.221Z,100.00
2024-04-06T03:51:26.303Z,100.00
2024-04-06T03:53:55.841Z,100.00
2024-04-06T03:56:22.977Z,100.00
2024-04-06T03:58:52.475Z,100.00
2024-04-06T04:01:19.863Z,100.00
2024-04-06T04:03:47.411Z,100.00
2024-04-06T04:06:16.163Z,100.00
2024-04-06T04:08:44.972Z,100.00
2024-04-06T04:11:15.077Z,100.00
2024-04-06T04:13:42.797Z,100.00
2024-04-06T04:16:10.446Z,100.00
2024-04-06T04:18:53.330Z,100.00
2024-04-06T04:21:20.435Z,100.00
2024-04-06T04:23:47.570Z,100.00
2024-04-06T04:26:17.129Z,100.00
2024-04-06T04:28:44.550Z,100.00
2024-04-06T04:31:16.426Z,100.00
2024-04-06T04:33:44.024Z,100.00
2024-04-06T04:36:14.070Z,100.00
2024-04-06T04:38:41.251Z,100.00
2024-04-06T04:41:08.780Z,100.00
2024-04-06T04:43:38.407Z,100.00
2024-04-06T04:46:06.008Z,100.00
2024-04-06T04:48:53.468Z,100.00
2024-04-06T04:51:21.800Z,100.00
2024-04-06T04:54:00.895Z,100.00
2024-04-06T04:56:28.001Z,100.00
2024-04-06T04:58:57.719Z,100.00
2024-04-06T05:01:24.927Z,100.00
2024-04-06T05:03:52.113Z,100.00
2024-04-06T05:06:19.250Z,100.00
2024-04-06T05:08:46.355Z,100.00
2024-04-06T05:11:16.670Z,100.00
2024-04-06T05:13:44.483Z,100.00
2024-04-06T05:16:14.497Z,100.00
2024-04-06T05:18:41.635Z,100.00
2024-04-06T05:21:09.746Z,100.00
2024-04-06T05:23:36.939Z,100.00
2024-04-06T05:26:05.055Z,100.00
2024-04-06T05:28:32.864Z,100.00
2024-04-06T05:31:00.614Z,100.00
2024-04-06T05:33:30.196Z,100.00
2024-04-06T05:36:18.042Z,100.00
2024-04-06T05:38:46.758Z,100.00
2024-04-06T05:41:13.646Z,100.00
2024-04-06T05:43:42.048Z,100.00
2024-04-06T05:46:09.350Z,100.00
2024-04-06T05:48:41.570Z,100.00
2024-04-06T05:51:08.711Z,100.00
2024-04-06T05:53:36.494Z,100.00
2024-04-06T05:56:04.096Z,100.00
2024-04-06T05:58:33.551Z,100.00
2024-04-06T06:01:02.581Z,100.00
2024-04-06T06:03:30.174Z,100.00
2024-04-06T06:06:00.296Z,100.00
2024-04-06T06:08:27.953Z,100.00
2024-04-06T06:10:55.081Z,100.00
2024-04-06T06:13:23.996Z,100.00
2024-04-06T06:15:51.771Z,100.00
2024-04-06T06:18:29.198Z,100.00
2024-04-06T06:20:56.329Z,100.00
2024-04-06T06:23:25.976Z,100.00
2024-04-06T06:25:53.131Z,100.00
2024-04-06T06:28:20.279Z,100.00
2024-04-06T06:30:48.019Z,100.00
2024-04-06T06:33:15.126Z,100.00
2024-04-06T06:38:27.939Z,100.00
2024-04-06T06:40:55.082Z,100.00
2024-04-06T06:43:26.143Z,100.00
2024-04-06T06:45:53.219Z,100.00
2024-04-06T06:48:20.304Z,100.00
2024-04-06T06:50:48.036Z,100.00
2024-04-06T06:53:56.266Z,100.00
2024-04-06T06:56:25.875Z,100.00
2024-04-06T06:58:53.160Z,96.73
2024-04-06T07:01:20.284Z,91.20
2024-04-06T07:03:47.437Z,80.45
2024-04-06T07:07:06.538Z,68.19
2024-04-06T07:09:03.272Z,62.73
2024-04-06T07:11:32.977Z,59.87
2024-04-06T07:14:00.824Z,61.38
2024-04-06T07:16:29.973Z,59.43
2024-04-06T07:18:57.099Z,55.81
2024-04-06T07:21:53.285Z,52.96
2024-04-06T07:24:22.559Z,53.12
2024-04-06T07:26:52.232Z,50.95
2024-04-06T07:29:20.452Z,50.31
2024-04-06T07:31:47.551Z,48.70
2024-04-06T07:34:14.721Z,48.26
2024-04-06T07:36:42.156Z,46.92
2024-04-06T07:41:46.340Z,40.61
2024-04-06T07:44:20.193Z,41.31
2024-04-06T07:46:47.469Z,39.02
2024-04-06T07:49:14.614Z,39.08
2024-04-06T07:51:46.799Z,39.25
2024-04-06T07:54:14.613Z,38.41
2024-04-06T07:56:56.631Z,39.07
2024-04-06T07:59:26.199Z,37.43
2024-04-06T08:01:53.409Z,36.62
2024-04-06T08:04:20.512Z,38.14
2024-04-06T08:06:47.604Z,36.29
2024-04-06T08:09:14.733Z,35.88
2024-04-06T08:11:46.244Z,37.04
2024-04-06T08:14:20.896Z,37.55
2024-04-06T08:17:06.880Z,39.38
2024-04-06T08:19:34.416Z,38.40
2024-04-06T08:22:02.919Z,36.92
2024-04-06T08:24:29.986Z,36.28
2024-04-06T08:27:00.588Z,34.69
2024-04-06T08:29:28.514Z,35.57
2024-04-06T08:32:11.247Z,36.74
2024-04-06T08:34:38.873Z,34.37
2024-04-06T08:37:08.241Z,34.32
2024-04-06T08:39:35.338Z,34.46
2024-04-06T08:42:03.345Z,34.11
2024-04-06T08:44:40.729Z,35.27
2024-04-06T08:47:13.792Z,33.33
2024-04-06T08:49:42.025Z,34.18
2024-04-06T08:52:10.547Z,33.85
2024-04-06T08:54:38.287Z,33.87
2024-04-06T08:57:05.849Z,34.92
2024-04-06T08:59:34.194Z,34.74
2024-04-06T09:02:01.598Z,37.64
2024-04-06T09:04:31.471Z,39.23
2024-04-06T09:07:11.894Z,38.78
2024-04-06T09:09:40.126Z,36.91
2024-04-06T09:12:09.079Z,38.05
2024-04-06T09:14:40.454Z,38.58
2024-04-06T09:17:10.516Z,40.70
2024-04-06T09:19:40.104Z,42.10
2024-04-06T09:22:07.281Z,44.72
2024-04-06T09:24:34.616Z,45.68
2024-04-06T09:27:06.302Z,46.19
2024-04-06T09:29:33.455Z,46.80
2024-04-06T09:32:11.815Z,47.80
2024-04-06T09:34:49.429Z,47.25
2024-04-06T09:37:20.931Z,45.58
2024-04-06T09:39:49.157Z,45.89
2024-04-06T09:42:18.416Z,45.75
2024-04-06T09:44:45.636Z,45.74
2024-04-06T09:47:15.352Z,45.68
2024-04-06T09:49:45.955Z,45.65
2024-04-06T09:52:17.324Z,46.64
2024-04-06T09:54:44.694Z,45.63
2024-04-06T09:57:13.640Z,45.82
2024-04-06T09:59:41.326Z,46.50
2024-04-06T10:02:09.260Z,47.36
2024-04-06T10:04:36.831Z,48.16
2024-04-06T10:07:07.585Z,48.77
2024-04-06T10:09:38.787Z,47.44
2024-04-06T10:12:10.143Z,47.19
2024-04-06T10:14:45.298Z,46.29
2024-04-06T10:17:41.567Z,45.35
2024-04-06T10:20:11.379Z,45.31
2024-04-06T10:22:51.610Z,44.50
2024-04-06T10:25:24.309Z,44.59
2024-04-06T10:28:00.054Z,44.91
2024-04-06T10:30:28.356Z,46.02
2024-04-06T10:32:55.623Z,46.22
2024-04-06T10:35:23.227Z,47.45
2024-04-06T10:37:53.608Z,47.03
2024-04-06T10:40:24.425Z,47.11
2024-04-06T10:42:51.975Z,47.91
2024-04-06T10:45:32.412Z,49.34
2024-04-06T10:47:59.777Z,48.40
2024-04-06T10:50:26.967Z,46.85
2024-04-06T10:52:56.689Z,45.30
2024-04-06T10:55:24.097Z,44.03
2024-04-06T10:57:51.312Z,43.57
2024-04-06T11:00:19.316Z,42.49
2024-04-06T11:02:46.388Z,40.98
2024-04-06T11:05:13.493Z,40.44
2024-04-06T11:07:42.270Z,42.24
2024-04-06T11:10:12.194Z,42.28
2024-04-06T11:12:39.913Z,41.36
2024-04-06T11:15:08.822Z,41.30
2024-04-06T11:17:36.253Z,42.00
2024-04-06T11:20:05.166Z,41.87
2024-04-06T11:22:32.263Z,41.58
2024-04-06T11:24:59.869Z,40.23
2024-04-06T11:27:29.569Z,40.23
2024-04-06T11:30:01.174Z,40.86
2024-04-06T11:32:30.161Z,41.61
2024-04-06T11:34:57.464Z,41.95
2024-04-06T11:37:25.687Z,42.40
2024-04-06T11:39:52.850Z,40.70
2024-04-06T11:42:19.975Z,42.50
2024-04-06T11:44:49.567Z,42.51
2024-04-06T11:47:16.696Z,41.78
2024-04-06T11:49:43.902Z,42.43
2024-04-06T11:52:11.072Z,42.87
2024-04-06T11:54:38.575Z,43.01
2024-04-06T11:57:06.015Z,42.58
2024-04-06T11:59:33.110Z,41.13
2024-04-06T12:02:02.844Z,41.29
2024-04-06T12:04:32.753Z,41.41
2024-04-06T12:07:01.384Z,42.25
2024-04-06T12:09:28.547Z,41.66
2024-04-06T12:11:59.169Z,41.90
2024-04-06T12:14:26.493Z,40.77
2024-04-06T12:16:54.577Z,40.86
2024-04-06T12:19:26.971Z,41.52
2024-04-06T12:21:54.485Z,42.26
2024-04-06T12:24:21.784Z,42.09
2024-04-06T12:26:48.919Z,42.80
2024-04-06T12:29:16.043Z,42.85
2024-04-06T12:31:43.140Z,42.63
2024-04-06T12:34:10.258Z,42.69
2024-04-06T12:36:39.923Z,41.38
2024-04-06T12:39:10.369Z,41.57
2024-04-06T12:41:37.496Z,41.47
2024-04-06T12:44:05.054Z,41.61
2024-04-06T12:46:32.240Z,42.40
2024-04-06T12:48:59.339Z,41.66
2024-04-06T12:51:29.430Z,41.72
2024-04-06T12:53:59.055Z,41.57
2024-04-06T12:56:26.957Z,43.02
2024-04-06T12:58:53.957Z,42.77
2024-04-06T13:01:21.093Z,42.11
2024-04-06T13:03:59.726Z,42.67
2024-04-06T13:06:32.111Z,42.34
2024-04-06T13:09:01.523Z,42.23
2024-04-06T13:11:28.635Z,40.59
2024-04-06T13:13:55.754Z,40.59
2024-04-06T13:16:22.987Z,41.48
2024-04-06T13:18:50.118Z,40.13
2024-04-06T13:21:17.626Z,38.82
2024-04-06T13:23:44.715Z,39.34
2024-04-06T13:26:14.391Z,38.93
2024-04-06T13:28:41.594Z,39.39
2024-04-06T13:31:09.175Z,38.85
2024-04-06T13:33:37.833Z,39.62
2024-04-06T13:36:06.048Z,39.39
2024-04-06T13:38:33.235Z,39.64
2024-04-06T13:41:00.335Z,38.10
2024-04-06T13:43:30.227Z,38.58
2024-04-06T13:45:58.950Z,36.78
2024-04-06T13:48:26.146Z,36.73
2024-04-06T13:50:55.652Z,36.60
2024-04-06T13:53:22.999Z,37.41
2024-04-06T13:55:50.323Z,37.26
2024-04-06T13:58:17.570Z,37.55
2024-04-06T14:00:47.217Z,37.10
2024-04-06T14:03:14.322Z,36.60
2024-04-06T14:05:41.542Z,36.63
2024-04-06T14:08:08.746Z,36.17
2024-04-06T14:10:35.867Z,37.42
2024-04-06T14:13:03.064Z,36.13
2024-04-06T14:15:30.186Z,36.39
2024-04-06T14:17:59.838Z,36.20
2024-04-06T14:20:27.376Z,37.24
2024-04-06T14:22:54.522Z,37.44
2024-04-06T14:25:21.956Z,37.11
2024-04-06T14:27:49.224Z,36.93
2024-04-06T14:30:45.576Z,37.51
2024-04-06T14:33:15.266Z,36.47
2024-04-06T14:35:42.458Z,36.70
2024-04-06T14:38:10.039Z,36.89
2024-04-06T14:40:37.163Z,36.69
2024-04-06T14:43:04.733Z,36.66
2024-04-06T14:45:31.881Z,37.88
2024-04-06T14:47:59.066Z,37.94
2024-04-06T14:50:28.727Z,37.81
2024-04-06T14:52:55.828Z,37.19
2024-04-06T14:55:23.125Z,36.70
2024-04-06T14:57:50.297Z,36.81
2024-04-06T15:00:18.132Z,38.02
2024-04-06T15:02:45.320Z,38.03
2024-04-06T15:05:12.494Z,36.83
2024-04-06T15:07:42.137Z,37.78
2024-04-06T15:10:09.664Z,38.09
2024-04-06T15:12:36.853Z,37.75
2024-04-06T15:15:05.831Z,37.15
2024-04-06T15:17:35.046Z,37.41
2024-04-06T15:20:02.462Z,37.14
2024-04-06T15:22:29.579Z,37.23
2024-04-06T15:24:59.191Z,37.14
2024-04-06T15:27:26.318Z,38.29
2024-04-06T15:29:53.409Z,36.42
2024-04-06T15:32:20.664Z,36.69
2024-04-06T15:34:47.789Z,37.56
2024-04-06T15:37:16.713Z,37.46
2024-04-06T15:39:43.984Z,37.89
2024-04-06T15:42:15.515Z,37.71
2024-04-06T15:44:42.749Z,36.83
2024-04-06T15:47:09.890Z,37.44
2024-04-06T15:49:37.042Z,37.29
2024-04-06T15:52:04.665Z,37.83
2024-04-06T15:54:31.773Z,38.16
2024-04-06T15:56:59.562Z,38.28
2024-04-06T15:59:29.135Z,39.34
2024-04-06T16:01:57.057Z,38.82
2024-04-06T16:04:25.515Z,38.80
2024-04-06T16:06:54.050Z,39.45
2024-04-06T16:09:22.925Z,40.18
2024-04-06T16:11:52.463Z,39.88
2024-04-06T16:14:19.590Z,39.16
2024-04-06T16:16:49.226Z,39.57
2024-04-06T16:19:16.316Z,39.58
2024-04-06T16:21:43.635Z,40.53
2024-04-06T16:24:10.802Z,39.67
2024-04-06T16:26:37.945Z,39.67
2024-04-06T16:29:05.100Z,40.16
2024-04-06T16:31:33.200Z,40.62
2024-04-06T16:34:02.662Z,41.41
2024-04-06T16:36:29.796Z,41.28
2024-04-06T16:38:56.895Z,41.06
2024-04-06T16:41:24.803Z,42.59
2024-04-06T16:43:52.031Z,42.89
2024-04-06T16:46:19.823Z,43.22
2024-04-06T16:48:46.943Z,43.77
2024-04-06T16:51:16.618Z,44.00
2024-04-06T16:53:43.917Z,44.67
2024-04-06T16:56:11.330Z,44.47
2024-04-06T16:58:38.454Z,45.51
2024-04-06T17:01:05.598Z,45.33
2024-04-06T17:03:32.772Z,45.13
2024-04-06T17:06:00.967Z,45.98
2024-04-06T17:08:30.573Z,45.86
2024-04-06T17:10:57.683Z,46.23
2024-04-06T17:13:25.328Z,46.92
2024-04-06T17:15:52.452Z,46.34
2024-04-06T17:18:19.611Z,47.37
2024-04-06T17:20:46.731Z,48.12
2024-04-06T17:23:14.967Z,47.66
2024-04-06T17:25:44.373Z,47.56
2024-04-06T17:28:11.511Z,49.10
2024-04-06T17:30:39.439Z,49.15
2024-04-06T17:33:06.875Z,49.66
2024-04-06T17:35:34.094Z,49.86
2024-04-06T17:38:01.955Z,49.61
2024-04-06T17:40:29.230Z,49.53
2024-04-06T17:42:58.813Z,49.53
2024-04-06T17:45:26.549Z,49.71
2024-04-06T17:47:53.778Z,50.45
2024-04-06T17:50:21.399Z,50.64
2024-04-06T17:52:48.612Z,50.44
2024-04-06T17:55:17.170Z,50.69
2024-04-06T17:57:44.532Z,50.87
2024-04-06T18:00:15.944Z,51.53
2024-04-06T18:02:44.767Z,51.54
2024-04-06T18:05:11.887Z,51.30
2024-04-06T18:07:39.008Z,51.80
2024-04-06T18:10:08.846Z,51.48
2024-04-06T18:12:36.086Z,52.06
2024-04-06T18:15:04.586Z,51.90
2024-04-06T18:17:34.170Z,51.90
2024-04-06T18:20:01.333Z,51.76
2024-04-06T18:22:28.764Z,52.08
2024-04-06T18:24:57.448Z,52.11
2024-04-06T18:27:27.163Z,52.41
2024-04-06T18:29:54.556Z,52.84
2024-04-06T18:32:21.917Z,52.97
2024-04-06T18:34:54.028Z,52.66
2024-04-06T18:37:21.208Z,52.92
2024-04-06T18:39:51.050Z,53.14
2024-04-06T18:42:18.238Z,53.21
2024-04-06T18:44:45.395Z,54.07
2024-04-06T18:47:12.639Z,54.02
2024-04-06T18:49:40.026Z,54.09
2024-04-06T18:52:09.663Z,54.25
2024-04-06T18:54:36.812Z,54.63
2024-04-06T18:57:04.220Z,54.95
2024-04-06T18:59:31.311Z,55.53
2024-04-06T19:01:58.451Z,54.73
2024-04-06T19:04:28.021Z,55.55
2024-04-06T19:06:56.044Z,55.62
2024-04-06T19:09:27.177Z,55.34
2024-04-06T19:11:54.988Z,55.34
2024-04-06T19:14:22.174Z,55.78
2024-04-06T19:16:52.798Z,56.22
2024-04-06T19:19:19.892Z,56.55
2024-04-06T19:21:47.449Z,57.08
2024-04-06T19:24:14.641Z,56.94
2024-04-06T19:26:44.548Z,57.43
2024-04-06T19:29:12.947Z,58.14
2024-04-06T19:31:41.692Z,57.55
2024-04-06T19:34:10.550Z,58.82
2024-04-06T19:36:37.877Z,59.43
2024-04-06T19:39:08.374Z,59.85
2024-04-06T19:41:35.996Z,60.75
2024-04-06T19:44:05.808Z,61.78
2024-04-06T19:46:33.010Z,62.80
2024-04-06T19:49:00.116Z,63.59
2024-04-06T19:51:27.312Z,64.69
2024-04-06T19:53:54.412Z,65.13
2024-04-06T19:56:21.567Z,66.30
2024-04-06T19:58:50.322Z,67.46
2024-04-06T20:01:20.639Z,67.96
2024-04-06T20:03:47.756Z,68.68
2024-04-06T20:06:14.868Z,69.73
2024-04-06T20:08:42.009Z,70.26
2024-04-06T20:11:09.895Z,71.26
2024-04-06T20:13:37.787Z,72.90
2024-04-06T20:16:05.336Z,74.52
2024-04-06T20:18:34.940Z,74.91
2024-04-06T20:21:03.732Z,75.18
2024-04-06T20:23:49.655Z,75.67
2024-04-06T20:26:16.552Z,75.52
2024-04-06T20:28:44.270Z,77.00
2024-04-06T20:31:12.393Z,77.94
2024-04-06T20:33:42.027Z,78.10
2024-04-06T20:36:09.372Z,79.36
2024-04-06T20:38:36.486Z,79.63
2024-04-06T20:41:04.017Z,79.52
2024-04-06T20:43:31.144Z,80.31
2024-04-06T20:45:58.355Z,79.57
2024-04-06T20:50:55.446Z,78.14
2024-04-06T20:53:22.647Z,77.80
2024-04-06T20:55:50.231Z,78.41
2024-04-06T20:58:17.387Z,79.69
2024-04-06T21:00:44.664Z,79.95
2024-04-06T21:03:12.080Z,80.89
2024-04-06T21:05:39.157Z,80.88
2024-04-06T21:08:08.963Z,81.35
2024-04-06T21:10:36.819Z,81.56
2024-04-06T21:13:04.807Z,82.86
2024-04-06T21:15:31.944Z,83.07
2024-04-06T21:17:59.147Z,83.77
2024-04-06T21:20:26.360Z,84.83
2024-04-06T21:22:54.213Z,84.86
2024-04-06T21:25:23.897Z,85.46
2024-04-06T21:27:51.024Z,85.19
2024-04-06T21:30:18.571Z,85.38
2024-04-06T21:32:48.056Z,85.60
2024-04-06T21:35:16.327Z,86.74
2024-04-06T21:37:46.795Z,87.81
2024-04-06T21:40:14.070Z,87.64
2024-04-06T21:42:44.670Z,88.30
2024-04-06T21:45:13.912Z,88.43
2024-04-06T21:47:41.033Z,89.25
2024-04-06T21:50:08.753Z,90.05
2024-04-06T21:52:35.905Z,90.09
2024-04-06T21:55:04.036Z,90.98
2024-04-06T21:57:31.247Z,91.54
2024-04-06T22:00:00.827Z,91.75
2024-04-06T22:02:27.938Z,92.80
2024-04-06T22:04:55.083Z,93.00
2024-04-06T22:07:22.192Z,93.49
2024-04-06T22:09:49.384Z,93.33
2024-04-06T22:12:16.541Z,93.83
2024-04-06T22:14:44.577Z,94.53
2024-04-06T22:17:14.217Z,95.28
2024-04-06T22:19:41.949Z,96.16
2024-04-06T22:22:09.198Z,96.45
2024-04-06T22:24:36.374Z,96.45
2024-04-06T22:27:04.728Z,96.48
2024-04-06T22:29:34.319Z,96.59
2024-04-06T22:32:01.500Z,97.45
2024-04-06T22:34:31.346Z,97.44
2024-04-06T22:36:58.470Z,97.67
2024-04-06T22:39:25.561Z,97.26
2024-04-06T22:41:52.760Z,97.84
2024-04-06T22:44:20.919Z,98.29
2024-04-06T22:46:48.193Z,99.13
2024-04-06T22:49:16.190Z,99.85
2024-04-06T22:51:45.892Z,100.00
2024-04-06T22:54:13.576Z,100.00
2024-04-06T22:56:40.821Z,100.00
2024-04-06T22:59:07.910Z,100.00
2024-04-06T23:01:35.575Z,100.00
2024-04-06T23:04:02.706Z,100.00
2024-04-06T23:06:29.858Z,100.00
2024-04-06T23:08:59.476Z,100.00
2024-04-06T23:11:26.596Z,100.00
2024-04-06T23:13:53.871Z,100.00
2024-04-06T23:16:21.107Z,100.00
2024-04-06T23:18:48.195Z,100.00
2024-04-06T23:21:15.270Z,100.00
2024-04-06T23:23:42.396Z,100.00
2024-04-06T23:26:11.958Z,100.00
2024-04-06T23:28:39.143Z,100.00
2024-04-06T23:31:06.649Z,100.00
2024-04-06T23:33:34.294Z,100.00
2024-04-06T23:36:04.153Z,100.00
2024-04-06T23:38:31.512Z,100.00
2024-04-06T23:40:59.735Z,100.00
2024-04-06T23:43:29.385Z,100.00
2024-04-06T23:45:56.910Z,100.00
2024-04-06T23:48:24.128Z,100.00
2024-04-06T23:50:54.292Z,100.00
2024-04-06T23:53:21.554Z,100.00
2024-04-06T23:55:48.751Z,100.00
2024-04-06T23:58:15.990Z,100.00
